createdAt,value
2019-04-30T00:00:00.664Z,17.71
2019-04-30T00:00:05.665Z,19.20
2019-04-30T00:00:10.666Z,20.35
2019-04-30T00:00:15.808Z,21.19
2019-04-30T00:00:20.670Z,20.80
2019-04-30T00:00:25.671Z,21.34
2019-04-30T00:00:30.671Z,21.51
2019-04-30T00:00:35.672Z,20.28
2019-04-30T00:00:40.674Z,18.75
2019-04-30T00:00:45.674Z,19.54
2019-04-30T00:00:50.677Z,20.93
2019-04-30T00:00:55.677Z,23.14
2019-04-30T00:01:00.677Z,20.35
2019-04-30T00:01:05.679Z,18.77
2019-04-30T00:01:10.681Z,19.08
2019-04-30T00:01:15.681Z,18.35
2019-04-30T00:01:20.688Z,20.17
2019-04-30T00:01:25.682Z,20.76
2019-04-30T00:01:30.682Z,20.75
2019-04-30T00:01:35.684Z,19.56
2019-04-30T00:01:40.684Z,20.21
2019-04-30T00:01:45.689Z,20.74
2019-04-30T00:01:50.686Z,20.60
2019-04-30T00:01:55.687Z,20.52
2019-04-30T00:02:00.690Z,19.49
2019-04-30T00:02:05.689Z,18.49
2019-04-30T00:02:10.690Z,18.16
2019-04-30T00:02:15.691Z,19.07
2019-04-30T00:02:20.693Z,19.94
2019-04-30T00:02:25.696Z,18.64
2019-04-30T00:02:30.696Z,18.21
2019-04-30T00:02:35.695Z,19.11
2019-04-30T00:02:40.698Z,21.82
2019-04-30T00:02:45.698Z,22.34
2019-04-30T00:02:50.700Z,26.39
2019-04-30T00:02:55.699Z,23.83
2019-04-30T00:03:00.714Z,21.04
2019-04-30T00:03:05.702Z,19.71
2019-04-30T00:03:10.702Z,18.56
2019-04-30T00:03:15.703Z,18.18
2019-04-30T00:03:20.705Z,18.87
2019-04-30T00:03:25.706Z,18.86
2019-04-30T00:03:30.704Z,19.83
2019-04-30T00:03:35.708Z,18.90
2019-04-30T00:03:40.709Z,19.38
2019-04-30T00:03:45.709Z,20.15
2019-04-30T00:03:50.717Z,20.83
2019-04-30T00:03:55.713Z,19.94
2019-04-30T00:04:00.714Z,19.93
2019-04-30T00:04:05.713Z,18.93
2019-04-30T00:04:10.714Z,19.60
2019-04-30T00:04:15.717Z,18.99
2019-04-30T00:04:20.716Z,18.78
2019-04-30T00:04:25.718Z,18.72
2019-04-30T00:04:30.720Z,18.24
2019-04-30T00:04:35.720Z,18.08
2019-04-30T00:04:40.720Z,18.39
2019-04-30T00:04:45.722Z,19.07
2019-04-30T00:04:50.724Z,19.83
2019-04-30T00:04:55.725Z,21.02
2019-04-30T00:05:00.723Z,19.28
2019-04-30T00:05:05.724Z,18.88
2019-04-30T00:05:10.726Z,20.41
2019-04-30T00:05:15.727Z,19.09
2019-04-30T00:05:20.943Z,19.08
2019-04-30T00:05:25.728Z,19.37
2019-04-30T00:05:30.729Z,19.83
2019-04-30T00:05:35.731Z,20.65
2019-04-30T00:05:40.732Z,19.24
2019-04-30T00:05:45.874Z,19.35
2019-04-30T00:05:50.734Z,18.44
2019-04-30T00:05:55.734Z,19.27
2019-04-30T00:06:00.736Z,18.77
2019-04-30T00:06:05.735Z,18.25
2019-04-30T00:06:10.739Z,18.54
2019-04-30T00:06:15.737Z,19.27
2019-04-30T00:06:20.739Z,18.71
2019-04-30T00:06:25.742Z,18.95
2019-04-30T00:06:30.742Z,18.31
2019-04-30T00:06:35.742Z,18.68
2019-04-30T00:06:40.744Z,19.31
2019-04-30T00:06:45.745Z,19.55
2019-04-30T00:06:50.744Z,18.51
2019-04-30T00:06:55.745Z,18.89
2019-04-30T00:07:00.747Z,21.17
2019-04-30T00:07:05.747Z,20.44
2019-04-30T00:07:10.750Z,20.85
2019-04-30T00:07:15.748Z,21.36
2019-04-30T00:07:20.767Z,20.40
2019-04-30T00:07:25.753Z,18.78
2019-04-30T00:07:30.754Z,18.92
2019-04-30T00:07:35.755Z,21.30
2019-04-30T00:07:40.757Z,20.78
2019-04-30T00:07:45.754Z,20.21
2019-04-30T00:07:50.757Z,19.02
2019-04-30T00:07:55.760Z,19.16
2019-04-30T00:08:00.759Z,19.04
2019-04-30T00:08:05.758Z,18.34
2019-04-30T00:08:10.759Z,21.20
2019-04-30T00:08:15.760Z,20.80
2019-04-30T00:08:20.762Z,20.97
2019-04-30T00:08:25.763Z,22.06
2019-04-30T00:08:30.765Z,19.62
2019-04-30T00:08:35.764Z,20.12
2019-04-30T00:08:40.908Z,22.13
2019-04-30T00:08:45.769Z,21.77
2019-04-30T00:08:50.768Z,21.01
2019-04-30T00:08:55.769Z,20.39
2019-04-30T00:09:00.770Z,20.74
2019-04-30T00:09:05.770Z,21.32
2019-04-30T00:09:10.772Z,19.75
2019-04-30T00:09:15.805Z,19.87
2019-04-30T00:09:20.804Z,18.61
2019-04-30T00:09:25.806Z,19.61
2019-04-30T00:09:30.806Z,17.95
2019-04-30T00:09:35.807Z,17.98
2019-04-30T00:09:40.811Z,18.71
2019-04-30T00:09:45.810Z,20.65
2019-04-30T00:09:50.809Z,20.05
2019-04-30T00:09:55.812Z,20.37
2019-04-30T00:10:00.812Z,20.48
2019-04-30T00:10:05.826Z,20.94
2019-04-30T00:10:10.945Z,20.72
2019-04-30T00:10:15.815Z,20.74
2019-04-30T00:10:20.817Z,21.02
2019-04-30T00:10:26.074Z,19.29
2019-04-30T00:10:30.820Z,19.72
2019-04-30T00:10:35.820Z,19.69
2019-04-30T00:10:40.823Z,19.01
2019-04-30T00:10:45.821Z,19.88
2019-04-30T00:10:51.340Z,18.91
2019-04-30T00:10:55.823Z,19.02
2019-04-30T00:11:00.824Z,19.46
2019-04-30T00:11:05.824Z,19.57
2019-04-30T00:11:10.825Z,20.27
2019-04-30T00:11:15.824Z,21.16
2019-04-30T00:11:20.828Z,19.70
2019-04-30T00:11:25.830Z,19.85
2019-04-30T00:11:30.831Z,21.03
2019-04-30T00:11:35.833Z,22.08
2019-04-30T00:11:40.830Z,21.76
2019-04-30T00:11:45.833Z,19.95
2019-04-30T00:11:50.833Z,20.02
2019-04-30T00:11:55.838Z,21.08
2019-04-30T00:12:00.835Z,20.13
2019-04-30T00:12:05.836Z,20.00
2019-04-30T00:12:10.837Z,19.41
2019-04-30T00:12:15.839Z,20.22
2019-04-30T00:12:20.839Z,21.15
2019-04-30T00:12:25.841Z,19.33
2019-04-30T00:12:30.841Z,20.85
2019-04-30T00:12:35.842Z,18.94
2019-04-30T00:12:40.842Z,17.85
2019-04-30T00:12:45.844Z,19.07
2019-04-30T00:12:50.846Z,18.35
2019-04-30T00:12:55.846Z,19.41
2019-04-30T00:13:00.847Z,18.76
2019-04-30T00:13:05.851Z,18.91
2019-04-30T00:13:10.850Z,17.58
2019-04-30T00:13:15.851Z,17.20
2019-04-30T00:13:20.850Z,18.40
2019-04-30T00:13:25.852Z,18.50
2019-04-30T00:13:30.856Z,21.62
2019-04-30T00:13:35.853Z,21.61
2019-04-30T00:13:40.854Z,19.94
2019-04-30T00:13:45.858Z,17.97
2019-04-30T00:13:50.858Z,17.53
2019-04-30T00:13:55.860Z,18.31
2019-04-30T00:14:00.861Z,18.10
2019-04-30T00:14:05.865Z,18.03
2019-04-30T00:14:10.861Z,18.73
2019-04-30T00:14:15.862Z,19.62
2019-04-30T00:14:20.863Z,20.49
2019-04-30T00:14:25.865Z,20.52
2019-04-30T00:14:30.865Z,18.82
2019-04-30T00:14:35.867Z,18.16
2019-04-30T00:14:40.867Z,18.72
2019-04-30T00:14:45.870Z,15.81
2019-04-30T00:14:50.868Z,16.99
2019-04-30T00:14:55.872Z,17.30
2019-04-30T00:15:00.873Z,16.47
2019-04-30T00:15:05.872Z,17.21
2019-04-30T00:15:10.873Z,17.74
2019-04-30T00:15:15.875Z,17.91
2019-04-30T00:15:20.875Z,17.97
2019-04-30T00:15:25.884Z,21.71
2019-04-30T00:15:30.981Z,21.93
2019-04-30T00:15:35.879Z,20.41
2019-04-30T00:15:40.877Z,19.51
2019-04-30T00:15:45.878Z,20.92
2019-04-30T00:15:50.880Z,20.66
2019-04-30T00:15:55.881Z,21.29
2019-04-30T00:16:00.883Z,20.92
2019-04-30T00:16:05.883Z,20.66
2019-04-30T00:16:10.885Z,18.87
2019-04-30T00:16:15.887Z,18.29
2019-04-30T00:16:20.887Z,20.22
2019-04-30T00:16:25.888Z,20.57
2019-04-30T00:16:30.888Z,20.08
2019-04-30T00:16:35.919Z,18.68
2019-04-30T00:16:40.889Z,19.81
2019-04-30T00:16:45.890Z,19.26
2019-04-30T00:16:50.895Z,17.38
2019-04-30T00:16:55.895Z,16.50
2019-04-30T00:17:00.893Z,17.51
2019-04-30T00:17:05.896Z,18.26
2019-04-30T00:17:10.897Z,17.37
2019-04-30T00:17:15.896Z,16.39
2019-04-30T00:17:20.900Z,17.18
2019-04-30T00:17:25.898Z,17.73
2019-04-30T00:17:30.907Z,17.19
2019-04-30T00:17:35.900Z,15.89
2019-04-30T00:17:40.902Z,15.72
2019-04-30T00:17:45.904Z,15.41
2019-04-30T00:17:50.905Z,15.31
2019-04-30T00:17:55.904Z,14.70
2019-04-30T00:18:00.907Z,16.62
2019-04-30T00:18:05.907Z,16.97
2019-04-30T00:18:10.907Z,15.91
2019-04-30T00:18:15.908Z,14.89
2019-04-30T00:18:20.910Z,15.02
2019-04-30T00:18:25.912Z,14.60
2019-04-30T00:18:30.912Z,15.22
2019-04-30T00:18:35.912Z,13.95
2019-04-30T00:18:40.916Z,14.97
2019-04-30T00:18:45.914Z,14.88
2019-04-30T00:18:50.916Z,14.56
2019-04-30T00:18:55.918Z,15.12
2019-04-30T00:19:00.917Z,14.63
2019-04-30T00:19:05.926Z,14.48
2019-04-30T00:19:10.919Z,15.15
2019-04-30T00:19:15.922Z,17.06
2019-04-30T00:19:20.920Z,15.94
2019-04-30T00:19:25.924Z,14.18
2019-04-30T00:19:30.923Z,14.03
2019-04-30T00:19:35.924Z,15.69
2019-04-30T00:19:40.926Z,15.48
2019-04-30T00:19:45.928Z,13.00
2019-04-30T00:19:50.936Z,13.28
2019-04-30T00:19:55.929Z,14.03
2019-04-30T00:20:00.935Z,15.98
2019-04-30T00:20:05.929Z,15.29
2019-04-30T00:20:10.931Z,14.69
2019-04-30T00:20:15.932Z,14.50
2019-04-30T00:20:20.986Z,14.43
2019-04-30T00:20:25.935Z,15.35
2019-04-30T00:20:30.934Z,13.99
2019-04-30T00:20:35.937Z,12.86
2019-04-30T00:20:40.938Z,13.90
2019-04-30T00:20:45.941Z,14.23
2019-04-30T00:20:50.939Z,13.77
2019-04-30T00:20:55.941Z,13.90
2019-04-30T00:21:01.240Z,12.11
2019-04-30T00:21:05.941Z,13.35
2019-04-30T00:21:10.941Z,13.60
2019-04-30T00:21:15.947Z,11.72
2019-04-30T00:21:20.943Z,12.40
2019-04-30T00:21:25.947Z,13.74
2019-04-30T00:21:31.380Z,14.76
2019-04-30T00:21:35.948Z,13.22
2019-04-30T00:21:40.947Z,14.01
2019-04-30T00:21:45.949Z,14.27
2019-04-30T00:21:50.950Z,14.36
2019-04-30T00:21:55.952Z,12.72
2019-04-30T00:22:00.952Z,11.43
2019-04-30T00:22:05.966Z,12.30
2019-04-30T00:22:10.953Z,14.01
2019-04-30T00:22:15.958Z,14.27
2019-04-30T00:22:20.956Z,14.36
2019-04-30T00:22:25.956Z,13.09
2019-04-30T00:22:30.959Z,13.60
2019-04-30T00:22:35.961Z,14.14
2019-04-30T00:22:40.960Z,14.31
2019-04-30T00:22:45.962Z,14.37
2019-04-30T00:22:50.963Z,14.39
2019-04-30T00:22:55.966Z,16.15
2019-04-30T00:23:00.965Z,16.73
2019-04-30T00:23:05.967Z,16.57
2019-04-30T00:23:10.967Z,14.53
2019-04-30T00:23:15.967Z,14.44
2019-04-30T00:23:20.967Z,13.23
2019-04-30T00:23:25.969Z,11.60
2019-04-30T00:23:30.969Z,14.52
2019-04-30T00:23:36.279Z,14.44
2019-04-30T00:23:40.971Z,15.71
2019-04-30T00:23:45.972Z,14.83
2019-04-30T00:23:50.973Z,15.00
2019-04-30T00:23:55.981Z,15.06
2019-04-30T00:24:00.977Z,14.62
2019-04-30T00:24:05.978Z,14.47
2019-04-30T00:24:10.978Z,13.13
2019-04-30T00:24:15.979Z,14.56
2019-04-30T00:24:20.983Z,14.45
2019-04-30T00:24:25.981Z,12.37
2019-04-30T00:24:30.983Z,12.03
2019-04-30T00:24:35.983Z,12.29
2019-04-30T00:24:41.132Z,11.95
2019-04-30T00:24:45.984Z,12.47
2019-04-30T00:24:50.983Z,13.77
2019-04-30T00:24:55.988Z,13.53
2019-04-30T00:25:00.989Z,12.82
2019-04-30T00:25:05.987Z,13.88
2019-04-30T00:25:10.989Z,14.60
2019-04-30T00:25:15.990Z,14.47
2019-04-30T00:25:20.990Z,14.42
2019-04-30T00:25:25.994Z,14.41
2019-04-30T00:25:30.992Z,13.83
2019-04-30T00:25:35.994Z,12.16
2019-04-30T00:25:40.994Z,13.00
2019-04-30T00:25:46.350Z,13.48
2019-04-30T00:25:50.997Z,13.15
2019-04-30T00:25:55.998Z,12.24
2019-04-30T00:26:01.000Z,10.69
2019-04-30T00:26:06.007Z,10.77
2019-04-30T00:26:10.999Z,12.08
2019-04-30T00:26:16.003Z,12.92
2019-04-30T00:26:21.007Z,13.25
2019-04-30T00:26:26.007Z,12.18
2019-04-30T00:26:31.007Z,13.30
2019-04-30T00:26:36.006Z,14.04
2019-04-30T00:26:41.009Z,13.56
2019-04-30T00:26:46.006Z,12.00
2019-04-30T00:26:51.013Z,9.79
2019-04-30T00:26:56.010Z,11.04
2019-04-30T00:27:01.067Z,12.00
2019-04-30T00:27:06.015Z,11.49
2019-04-30T00:27:11.012Z,12.78
2019-04-30T00:27:16.013Z,12.75
2019-04-30T00:27:21.013Z,13.86
2019-04-30T00:27:26.016Z,12.47
2019-04-30T00:27:31.015Z,10.63
2019-04-30T00:27:36.019Z,11.46
2019-04-30T00:27:41.019Z,13.14
2019-04-30T00:27:46.019Z,11.86
2019-04-30T00:27:51.022Z,11.72
2019-04-30T00:27:56.021Z,13.52
2019-04-30T00:28:01.022Z,13.54
2019-04-30T00:28:06.023Z,12.42
2019-04-30T00:28:11.026Z,12.05
2019-04-30T00:28:16.027Z,12.91
2019-04-30T00:28:21.026Z,11.49
2019-04-30T00:28:26.033Z,11.03
2019-04-30T00:28:31.078Z,10.87
2019-04-30T00:28:36.028Z,10.82
2019-04-30T00:28:41.032Z,10.81
2019-04-30T00:28:46.030Z,8.38
2019-04-30T00:28:51.031Z,9.34
2019-04-30T00:28:56.032Z,11.04
2019-04-30T00:29:01.034Z,12.58
2019-04-30T00:29:06.035Z,13.51
2019-04-30T00:29:11.036Z,14.11
2019-04-30T00:29:16.038Z,14.30
2019-04-30T00:29:21.037Z,14.37
2019-04-30T00:29:26.038Z,14.39
2019-04-30T00:29:31.039Z,14.40
2019-04-30T00:29:36.039Z,12.64
2019-04-30T00:29:41.045Z,11.70
2019-04-30T00:29:46.043Z,11.67
2019-04-30T00:29:51.044Z,12.79
2019-04-30T00:29:56.046Z,13.87
2019-04-30T00:30:01.045Z,14.23
2019-04-30T00:30:06.045Z,12.29
2019-04-30T00:30:11.048Z,13.25
2019-04-30T00:30:16.048Z,11.90
2019-04-30T00:30:21.271Z,11.16
2019-04-30T00:30:26.053Z,10.92
2019-04-30T00:30:31.051Z,11.56
2019-04-30T00:30:36.053Z,11.05
2019-04-30T00:30:41.057Z,11.60
2019-04-30T00:30:46.536Z,11.06
2019-04-30T00:30:51.063Z,11.25
2019-04-30T00:30:56.063Z,11.78
2019-04-30T00:31:01.063Z,10.40
2019-04-30T00:31:06.063Z,10.01
2019-04-30T00:31:11.064Z,10.54
2019-04-30T00:31:16.066Z,10.71
2019-04-30T00:31:21.067Z,11.72
2019-04-30T00:31:26.069Z,11.40
2019-04-30T00:31:31.069Z,11.00
2019-04-30T00:31:36.071Z,11.16
2019-04-30T00:31:41.069Z,10.92
2019-04-30T00:31:46.076Z,10.84
2019-04-30T00:31:51.073Z,10.52
2019-04-30T00:31:56.073Z,10.71
2019-04-30T00:32:01.073Z,10.77
2019-04-30T00:32:06.074Z,10.79
2019-04-30T00:32:11.076Z,10.80
2019-04-30T00:32:16.077Z,11.74
2019-04-30T00:32:21.078Z,11.77
2019-04-30T00:32:26.078Z,11.12
2019-04-30T00:32:31.080Z,10.90
2019-04-30T00:32:36.079Z,9.65
2019-04-30T00:32:41.082Z,8.00
2019-04-30T00:32:46.083Z,9.22
2019-04-30T00:32:51.086Z,9.56
2019-04-30T00:32:56.083Z,8.99
2019-04-30T00:33:01.085Z,9.91
2019-04-30T00:33:06.086Z,10.51
2019-04-30T00:33:11.087Z,13.12
2019-04-30T00:33:16.099Z,12.58
2019-04-30T00:33:21.090Z,13.23
2019-04-30T00:33:26.093Z,14.30
2019-04-30T00:33:31.092Z,11.95
2019-04-30T00:33:36.094Z,10.88
2019-04-30T00:33:41.093Z,10.83
2019-04-30T00:33:46.096Z,10.81
2019-04-30T00:33:51.096Z,11.38
2019-04-30T00:33:56.097Z,10.27
2019-04-30T00:34:01.097Z,8.21
2019-04-30T00:34:06.098Z,7.53
2019-04-30T00:34:11.099Z,9.36
2019-04-30T00:34:16.105Z,10.75
2019-04-30T00:34:21.102Z,12.08
2019-04-30T00:34:26.102Z,11.22
2019-04-30T00:34:31.105Z,9.76
2019-04-30T00:34:36.105Z,9.05
2019-04-30T00:34:41.108Z,10.23
2019-04-30T00:34:46.106Z,10.04
2019-04-30T00:34:51.109Z,10.55
2019-04-30T00:34:56.112Z,10.72
2019-04-30T00:35:01.110Z,8.35
2019-04-30T00:35:06.109Z,6.63
2019-04-30T00:35:11.113Z,6.65
2019-04-30T00:35:16.113Z,7.02
2019-04-30T00:35:21.112Z,9.27
2019-04-30T00:35:26.113Z,9.84
2019-04-30T00:35:31.115Z,10.19
2019-04-30T00:35:36.118Z,11.06
2019-04-30T00:35:41.117Z,11.64
2019-04-30T00:35:46.676Z,11.08
2019-04-30T00:35:51.119Z,10.17
2019-04-30T00:35:56.122Z,8.93
2019-04-30T00:36:01.120Z,8.06
2019-04-30T00:36:06.125Z,7.43
2019-04-30T00:36:11.126Z,7.27
2019-04-30T00:36:16.123Z,8.89
2019-04-30T00:36:21.127Z,8.05
2019-04-30T00:36:26.127Z,8.51
2019-04-30T00:36:31.126Z,7.63
2019-04-30T00:36:36.133Z,9.47
2019-04-30T00:36:41.129Z,10.36
2019-04-30T00:36:46.131Z,10.66
2019-04-30T00:36:51.131Z,10.75
2019-04-30T00:36:56.131Z,9.03
2019-04-30T00:37:01.133Z,8.52
2019-04-30T00:37:06.133Z,12.18
2019-04-30T00:37:11.135Z,11.25
2019-04-30T00:37:16.136Z,10.95
2019-04-30T00:37:22.533Z,10.85
2019-04-30T00:37:26.137Z,10.82
2019-04-30T00:37:31.138Z,11.10
2019-04-30T00:37:36.138Z,13.02
2019-04-30T00:37:41.144Z,13.65
2019-04-30T00:37:46.143Z,12.03
2019-04-30T00:37:51.141Z,11.20
2019-04-30T00:37:56.142Z,11.39
2019-04-30T00:38:01.153Z,12.75
2019-04-30T00:38:06.146Z,13.86
2019-04-30T00:38:11.146Z,13.50
2019-04-30T00:38:16.145Z,12.87
2019-04-30T00:38:21.147Z,13.60
2019-04-30T00:38:26.149Z,12.73
2019-04-30T00:38:31.150Z,11.80
2019-04-30T00:38:36.150Z,11.13
2019-04-30T00:38:41.150Z,11.33
2019-04-30T00:38:46.153Z,12.67
2019-04-30T00:38:51.155Z,12.54
2019-04-30T00:38:56.155Z,11.37
2019-04-30T00:39:01.156Z,10.99
2019-04-30T00:39:06.158Z,10.86
2019-04-30T00:39:11.157Z,12.58
2019-04-30T00:39:16.160Z,13.51
2019-04-30T00:39:21.507Z,13.39
2019-04-30T00:39:26.161Z,11.65
2019-04-30T00:39:31.161Z,10.50
2019-04-30T00:39:36.164Z,10.70
2019-04-30T00:39:41.165Z,10.77
2019-04-30T00:39:46.164Z,10.21
2019-04-30T00:39:51.166Z,8.65
2019-04-30T00:39:56.165Z,9.43
2019-04-30T00:40:01.166Z,10.35
2019-04-30T00:40:06.170Z,10.65
2019-04-30T00:40:11.168Z,10.75
2019-04-30T00:40:16.169Z,10.32
2019-04-30T00:40:21.171Z,10.64
2019-04-30T00:40:26.173Z,10.75
2019-04-30T00:40:31.282Z,10.49
2019-04-30T00:40:36.174Z,9.98
2019-04-30T00:40:41.174Z,8.77
2019-04-30T00:40:46.177Z,10.14
2019-04-30T00:40:51.178Z,10.58
2019-04-30T00:40:56.177Z,10.36
2019-04-30T00:41:01.180Z,9.94
2019-04-30T00:41:06.183Z,8.10
2019-04-30T00:41:11.183Z,8.53
2019-04-30T00:41:16.183Z,9.34
2019-04-30T00:41:21.182Z,7.90
2019-04-30T00:41:26.184Z,7.43
2019-04-30T00:41:31.186Z,7.28
2019-04-30T00:41:36.185Z,7.22
2019-04-30T00:41:41.187Z,8.68
2019-04-30T00:41:46.189Z,8.81
2019-04-30T00:41:51.188Z,7.73
2019-04-30T00:41:56.191Z,9.13
2019-04-30T00:42:01.194Z,9.07
2019-04-30T00:42:06.193Z,7.81
2019-04-30T00:42:11.193Z,7.40
2019-04-30T00:42:16.194Z,7.27
2019-04-30T00:42:21.193Z,7.22
2019-04-30T00:42:26.194Z,7.78
2019-04-30T00:42:31.198Z,7.39
2019-04-30T00:42:36.198Z,7.98
2019-04-30T00:42:41.198Z,8.40
2019-04-30T00:42:46.199Z,7.59
2019-04-30T00:42:51.201Z,8.05
2019-04-30T00:42:56.203Z,8.81
2019-04-30T00:43:01.205Z,9.78
2019-04-30T00:43:06.229Z,9.75
2019-04-30T00:43:11.203Z,8.70
2019-04-30T00:43:16.205Z,7.69
2019-04-30T00:43:21.206Z,7.36
2019-04-30T00:43:26.505Z,7.83
2019-04-30T00:43:31.207Z,9.37
2019-04-30T00:43:36.208Z,9.39
2019-04-30T00:43:41.209Z,7.92
2019-04-30T00:43:46.209Z,7.43
2019-04-30T00:43:51.212Z,7.28
2019-04-30T00:43:56.213Z,7.23
2019-04-30T00:44:01.216Z,7.21
2019-04-30T00:44:06.222Z,7.20
2019-04-30T00:44:11.216Z,7.20
2019-04-30T00:44:16.218Z,7.20
2019-04-30T00:44:21.218Z,8.68
2019-04-30T00:44:26.220Z,8.92
2019-04-30T00:44:31.219Z,7.76
2019-04-30T00:44:36.221Z,7.96
2019-04-30T00:44:41.221Z,9.87
2019-04-30T00:44:46.224Z,8.07
2019-04-30T00:44:51.223Z,8.78
2019-04-30T00:44:56.224Z,8.84
2019-04-30T00:45:01.225Z,8.61
2019-04-30T00:45:06.226Z,8.03
2019-04-30T00:45:11.226Z,7.47
2019-04-30T00:45:16.229Z,7.87
2019-04-30T00:45:21.230Z,7.42
2019-04-30T00:45:26.232Z,7.27
2019-04-30T00:45:31.232Z,7.22
2019-04-30T00:45:36.232Z,7.21
2019-04-30T00:45:41.236Z,7.20
2019-04-30T00:45:46.235Z,7.20
2019-04-30T00:45:51.235Z,7.20
2019-04-30T00:45:56.236Z,7.20
2019-04-30T00:46:01.237Z,7.20
2019-04-30T00:46:06.239Z,6.91
2019-04-30T00:46:11.238Z,7.10
2019-04-30T00:46:16.240Z,7.17
2019-04-30T00:46:21.240Z,7.19
2019-04-30T00:46:26.243Z,5.72
2019-04-30T00:46:31.242Z,6.14
2019-04-30T00:46:36.244Z,6.85
2019-04-30T00:46:41.244Z,7.09
2019-04-30T00:46:46.246Z,7.16
2019-04-30T00:46:51.246Z,7.19
2019-04-30T00:46:56.248Z,7.20
2019-04-30T00:47:01.430Z,7.20
2019-04-30T00:47:06.250Z,7.20
2019-04-30T00:47:11.251Z,7.20
2019-04-30T00:47:16.252Z,7.20
2019-04-30T00:47:21.255Z,7.20
2019-04-30T00:47:26.256Z,7.20
2019-04-30T00:47:31.256Z,7.20
2019-04-30T00:47:36.256Z,7.20
2019-04-30T00:47:41.257Z,7.20
2019-04-30T00:47:46.257Z,7.20
2019-04-30T00:47:51.259Z,7.20
2019-04-30T00:47:56.264Z,7.20
2019-04-30T00:48:01.259Z,7.20
2019-04-30T00:48:06.261Z,7.20
2019-04-30T00:48:11.262Z,7.20
2019-04-30T00:48:17.093Z,7.20
2019-04-30T00:48:21.263Z,7.20
2019-04-30T00:48:26.265Z,7.20
2019-04-30T00:48:31.266Z,7.20
2019-04-30T00:48:36.267Z,7.20
2019-04-30T00:48:41.266Z,7.20
2019-04-30T00:48:46.269Z,7.49
2019-04-30T00:48:51.269Z,7.30
2019-04-30T00:48:56.275Z,7.23
2019-04-30T00:49:01.273Z,7.21
2019-04-30T00:49:06.272Z,7.20
2019-04-30T00:49:11.274Z,8.90
2019-04-30T00:49:16.273Z,8.33
2019-04-30T00:49:21.276Z,9.27
2019-04-30T00:49:26.277Z,8.89
2019-04-30T00:49:31.277Z,9.42
2019-04-30T00:49:36.277Z,10.35
2019-04-30T00:49:41.283Z,10.36
2019-04-30T00:49:46.282Z,10.29
2019-04-30T00:49:51.284Z,10.34
2019-04-30T00:49:56.284Z,10.94
2019-04-30T00:50:01.471Z,10.85
2019-04-30T00:50:06.283Z,11.76
2019-04-30T00:50:11.284Z,11.78
2019-04-30T00:50:16.286Z,11.12
2019-04-30T00:50:21.287Z,10.33
2019-04-30T00:50:26.289Z,8.23
2019-04-30T00:50:31.290Z,7.54
2019-04-30T00:50:36.292Z,7.31
2019-04-30T00:50:41.293Z,7.24
2019-04-30T00:50:46.292Z,7.21
2019-04-30T00:50:51.294Z,7.20
2019-04-30T00:50:56.298Z,9.33
2019-04-30T00:51:01.295Z,12.02
2019-04-30T00:51:06.296Z,11.20
2019-04-30T00:51:11.298Z,10.93
2019-04-30T00:51:16.297Z,10.84
2019-04-30T00:51:21.299Z,10.45
2019-04-30T00:51:26.300Z,10.39
2019-04-30T00:51:31.301Z,10.67
2019-04-30T00:51:36.303Z,10.76
2019-04-30T00:51:41.302Z,10.79
2019-04-30T00:51:46.304Z,9.76
2019-04-30T00:51:51.305Z,8.70
2019-04-30T00:51:56.305Z,9.74
2019-04-30T00:52:01.307Z,10.45
2019-04-30T00:52:06.307Z,10.69
2019-04-30T00:52:11.307Z,10.47
2019-04-30T00:52:16.308Z,12.45
2019-04-30T00:52:21.311Z,12.89
2019-04-30T00:52:26.354Z,13.61
2019-04-30T00:52:31.352Z,13.27
2019-04-30T00:52:36.353Z,11.61
2019-04-30T00:52:41.354Z,11.07
2019-04-30T00:52:46.353Z,10.52
2019-04-30T00:52:51.354Z,10.71
2019-04-30T00:52:56.355Z,10.77
2019-04-30T00:53:01.357Z,10.07
2019-04-30T00:53:06.359Z,10.56
2019-04-30T00:53:11.359Z,10.15
2019-04-30T00:53:16.360Z,10.29
2019-04-30T00:53:21.361Z,10.17
2019-04-30T00:53:26.367Z,8.54
2019-04-30T00:53:31.365Z,8.58
2019-04-30T00:53:36.363Z,9.78
2019-04-30T00:53:42.315Z,8.05
2019-04-30T00:53:46.366Z,7.48
2019-04-30T00:53:51.366Z,7.29
2019-04-30T00:53:56.367Z,7.23
2019-04-30T00:54:01.369Z,7.21
2019-04-30T00:54:06.369Z,7.20
2019-04-30T00:54:11.384Z,7.20
2019-04-30T00:54:16.399Z,7.20
2019-04-30T00:54:21.372Z,7.20
2019-04-30T00:54:26.374Z,7.20
2019-04-30T00:54:31.374Z,7.20
2019-04-30T00:54:36.376Z,7.20
2019-04-30T00:54:41.376Z,7.57
2019-04-30T00:54:46.377Z,7.32
2019-04-30T00:54:51.377Z,7.24
2019-04-30T00:54:56.380Z,7.21
2019-04-30T00:55:01.380Z,7.92
2019-04-30T00:55:06.382Z,8.31
2019-04-30T00:55:11.382Z,7.86
2019-04-30T00:55:16.383Z,7.42
2019-04-30T00:55:21.383Z,7.27
2019-04-30T00:55:26.387Z,7.22
2019-04-30T00:55:31.386Z,7.21
2019-04-30T00:55:36.387Z,7.20
2019-04-30T00:55:41.387Z,7.20
2019-04-30T00:55:46.391Z,7.20
2019-04-30T00:55:51.390Z,7.20
2019-04-30T00:55:56.391Z,7.20
2019-04-30T00:56:01.393Z,7.20
2019-04-30T00:56:06.405Z,6.02
2019-04-30T00:56:11.401Z,6.81
2019-04-30T00:56:16.393Z,7.07
2019-04-30T00:56:21.396Z,7.16
2019-04-30T00:56:26.397Z,5.52
2019-04-30T00:56:31.397Z,6.36
2019-04-30T00:56:36.405Z,6.92
2019-04-30T00:56:41.399Z,7.11
2019-04-30T00:56:46.402Z,7.17
2019-04-30T00:56:51.401Z,7.19
2019-04-30T00:56:56.404Z,7.20
2019-04-30T00:57:01.403Z,7.20
2019-04-30T00:57:06.404Z,7.20
2019-04-30T00:57:11.405Z,7.20
2019-04-30T00:57:16.407Z,7.20
2019-04-30T00:57:21.407Z,7.20
2019-04-30T00:57:26.409Z,8.96
2019-04-30T00:57:31.409Z,8.44
2019-04-30T00:57:36.411Z,7.61
2019-04-30T00:57:41.410Z,7.33
2019-04-30T00:57:46.412Z,8.42
2019-04-30T00:57:51.414Z,11.43
2019-04-30T00:57:56.413Z,12.30
2019-04-30T00:58:01.417Z,11.29
2019-04-30T00:58:06.416Z,9.20
2019-04-30T00:58:11.417Z,7.86
2019-04-30T00:58:16.417Z,9.08
2019-04-30T00:58:21.418Z,8.57
2019-04-30T00:58:26.420Z,7.65
2019-04-30T00:58:31.423Z,9.19
2019-04-30T00:58:36.423Z,7.85
2019-04-30T00:58:41.423Z,9.11
2019-04-30T00:58:46.425Z,12.00
2019-04-30T00:58:51.423Z,11.49
2019-04-30T00:58:56.426Z,8.90
2019-04-30T00:59:01.437Z,9.09
2019-04-30T00:59:06.427Z,7.82
2019-04-30T00:59:11.428Z,8.70
2019-04-30T00:59:16.428Z,10.11
2019-04-30T00:59:21.430Z,10.57
2019-04-30T00:59:26.431Z,11.02
2019-04-30T00:59:31.431Z,13.00
2019-04-30T00:59:36.433Z,13.94
2019-04-30T00:59:41.436Z,12.12
2019-04-30T00:59:46.435Z,11.23
2019-04-30T00:59:51.437Z,11.66
2019-04-30T00:59:56.437Z,11.08
2019-04-30T01:00:01.438Z,10.89
2019-04-30T01:00:06.439Z,10.83
2019-04-30T01:00:11.440Z,9.05
2019-04-30T01:00:16.440Z,8.27
2019-04-30T01:00:21.474Z,9.14
2019-04-30T01:00:26.558Z,9.08
2019-04-30T01:00:31.800Z,7.81
2019-04-30T01:00:36.446Z,9.53
2019-04-30T01:00:41.447Z,10.38
2019-04-30T01:00:46.449Z,9.37
2019-04-30T01:00:51.448Z,7.91
2019-04-30T01:00:56.450Z,7.43
2019-04-30T01:01:01.450Z,7.28
2019-04-30T01:01:06.451Z,7.22
2019-04-30T01:01:11.451Z,7.21
2019-04-30T01:01:16.456Z,7.20
2019-04-30T01:01:21.454Z,7.20
2019-04-30T01:01:26.456Z,7.20
2019-04-30T01:01:31.455Z,7.20
2019-04-30T01:01:36.456Z,7.20
2019-04-30T01:01:41.506Z,7.20
2019-04-30T01:01:46.458Z,7.20
2019-04-30T01:01:51.461Z,7.20
2019-04-30T01:01:56.460Z,7.20
2019-04-30T01:02:01.462Z,8.38
2019-04-30T01:02:06.464Z,8.05
2019-04-30T01:02:11.463Z,7.48
2019-04-30T01:02:16.463Z,7.29
2019-04-30T01:02:21.465Z,8.56
2019-04-30T01:02:26.466Z,7.65
2019-04-30T01:02:31.473Z,6.63
2019-04-30T01:02:36.469Z,7.01
2019-04-30T01:02:41.469Z,7.14
2019-04-30T01:02:46.468Z,7.18
2019-04-30T01:02:51.471Z,7.19
2019-04-30T01:02:56.472Z,7.20
2019-04-30T01:03:01.472Z,7.20
2019-04-30T01:03:06.474Z,7.20
2019-04-30T01:03:11.474Z,7.20
2019-04-30T01:03:16.475Z,7.20
2019-04-30T01:03:21.476Z,7.20
2019-04-30T01:03:26.477Z,7.20
2019-04-30T01:03:31.479Z,7.49
2019-04-30T01:03:36.481Z,7.30
2019-04-30T01:03:41.481Z,7.23
2019-04-30T01:03:46.480Z,7.21
2019-04-30T01:03:51.481Z,7.20
2019-04-30T01:03:56.483Z,7.20
2019-04-30T01:04:01.484Z,7.20
2019-04-30T01:04:06.489Z,7.20
2019-04-30T01:04:11.488Z,7.20
2019-04-30T01:04:16.489Z,7.86
2019-04-30T01:04:21.492Z,8.29
2019-04-30T01:04:26.490Z,7.56
2019-04-30T01:04:31.489Z,7.32
2019-04-30T01:04:36.507Z,7.24
2019-04-30T01:04:41.493Z,8.25
2019-04-30T01:04:46.493Z,7.54
2019-04-30T01:04:51.494Z,8.03
2019-04-30T01:04:56.494Z,8.80
2019-04-30T01:05:01.499Z,8.60
2019-04-30T01:05:06.497Z,7.66